Time;durP1;ratioP1;P1;durP2;ratioP2;P2;SDS_P1;SDS_P2;PMS_P1;PMS_P2;Temp;Humidity;BMP_temperature;BMP_pressure;BME280_temperature;BME280_humidity;BME280_pressure;Samples;Min_cycle;Max_cycle;Signal;HPM_P1;HPM_P2
2021/04/16 00:00:43;;;;;;;3.60;1.77;;;3.10;98.40;;;;;;5037748;28;20025;-85
2021/04/16 00:03:10;;;;;;;6.63;2.00;;;3.10;98.40;;;;;;5036863;28;20029;-83
2021/04/16 00:05:37;;;;;;;4.03;1.80;;;3.00;98.80;;;;;;5036999;28;20060;-84
2021/04/16 00:08:12;;;;;;;4.90;1.77;;;3.00;98.90;;;;;;5042702;28;20089;-83
2021/04/16 00:10:45;;;;;;;5.53;2.00;;;3.00;99.60;;;;;;5044414;28;20052;-83
2021/04/16 00:13:13;;;;;;;6.50;2.10;;;2.90;99.30;;;;;;5039848;28;20033;-83
2021/04/16 00:15:40;;;;;;;5.20;1.80;;;2.90;99.70;;;;;;5033199;28;20032;-83
2021/04/16 00:18:08;;;;;;;5.63;1.80;;;2.90;99.90;;;;;;5034336;28;20132;-83
2021/04/16 00:20:35;;;;;;;4.27;2.07;;;2.90;99.70;;;;;;5034705;28;20467;-83
2021/04/16 00:23:01;;;;;;;4.63;1.90;;;2.90;99.60;;;;;;5034678;28;20018;-83
2021/04/16 00:25:29;;;;;;;3.93;1.70;;;2.90;99.70;;;;;;5035257;28;20037;-83
2021/04/16 00:27:55;;;;;;;6.40;2.03;;;2.80;99.80;;;;;;5035420;28;20032;-84
2021/04/16 00:30:24;;;;;;;4.67;1.70;;;2.90;99.90;;;;;;5034672;28;20051;-84
2021/04/16 00:32:50;;;;;;;5.47;2.00;;;2.80;99.90;;;;;;5031708;28;20479;-83
2021/04/16 00:35:15;;;;;;;5.70;2.40;;;2.80;99.90;;;;;;5035260;28;20056;-84
2021/04/16 00:37:41;;;;;;;4.37;1.93;;;2.80;99.90;;;;;;5036315;28;20107;-83
2021/04/16 00:40:11;;;;;;;5.30;2.47;;;2.80;99.90;;;;;;5034710;28;20490;-83
2021/04/16 00:42:37;;;;;;;5.73;2.20;;;2.80;99.90;;;;;;5034435;28;20031;-83
2021/04/16 00:45:04;;;;;;;4.13;1.90;;;2.80;99.90;;;;;;5034848;28;20105;-83
2021/04/16 00:47:31;;;;;;;4.20;1.80;;;2.80;99.90;;;;;;5034331;28;20405;-83
2021/04/16 00:50:06;;;;;;;5.27;1.63;;;2.80;99.90;;;;;;5036295;28;20471;-83
2021/04/16 00:52:33;;;;;;;5.00;2.23;;;2.80;99.90;;;;;;5014080;23;20042;-84
2021/04/16 00:55:00;;;;;;;4.20;1.57;;;2.70;99.90;;;;;;4994975;28;20122;-85
2021/04/16 00:57:26;;;;;;;5.23;1.90;;;2.70;99.90;;;;;;4995724;28;20160;-84
2021/04/16 00:59:57;;;;;;;6.20;3.10;;;2.80;99.90;;;;;;4997934;28;20018;-84
2021/04/16 01:02:23;;;;;;;4.90;2.13;;;2.70;99.90;;;;;;4984407;28;20030;-85
2021/04/16 01:04:50;;;;;;;3.77;1.80;;;2.70;99.90;;;;;;4978091;28;20030;-85
2021/04/16 01:07:18;;;;;;;4.73;1.90;;;2.60;99.90;;;;;;4978309;28;20108;-85
2021/04/16 01:09:44;;;;;;;4.70;1.90;;;2.60;99.90;;;;;;4977526;28;20507;-84
2021/04/16 01:12:11;;;;;;;4.33;2.20;;;2.60;99.90;;;;;;4977724;28;20031;-85
2021/04/16 01:14:40;;;;;;;5.10;2.00;;;2.60;99.90;;;;;;4978496;28;20030;-85
2021/04/16 01:17:10;;;;;;;5.40;2.13;;;2.50;99.90;;;;;;4978119;28;20029;-85
2021/04/16 01:20:07;;;;;;;4.67;2.17;;;2.60;99.90;;;;;;4973232;28;20026;-84
2021/04/16 01:22:56;;;;;;;4.07;2.03;;;2.50;99.90;;;;;;4977405;28;20081;-85
2021/04/16 01:25:23;;;;;;;6.27;2.20;;;2.50;99.90;;;;;;4977431;28;20035;-85
2021/04/16 01:27:49;;;;;;;4.40;2.17;;;2.50;99.90;;;;;;4974119;28;20029;-85
2021/04/16 01:30:22;;;;;;;5.37;1.87;;;2.40;99.90;;;;;;4981848;28;20047;-85
2021/04/16 01:32:48;;;;;;;5.03;2.33;;;2.40;99.90;;;;;;4976942;28;20031;-85
2021/04/16 01:35:17;;;;;;;3.33;1.80;;;2.40;99.90;;;;;;4981238;28;20126;-85
2021/04/16 01:37:43;;;;;;;4.37;1.90;;;2.40;99.90;;;;;;4977500;28;20031;-85
2021/04/16 01:40:11;;;;;;;4.47;1.90;;;2.40;99.90;;;;;;4980353;28;20031;-84
2021/04/16 01:42:36;;;;;;;4.10;1.90;;;2.40;99.90;;;;;;4978464;28;20051;-85
2021/04/16 01:45:06;;;;;;;4.10;1.83;;;2.30;99.90;;;;;;4979524;28;20026;-85
2021/04/16 01:47:32;;;;;;;5.20;2.00;;;2.30;99.90;;;;;;4968325;28;20022;-85
2021/04/16 01:49:57;;;;;;;4.10;2.00;;;2.30;99.90;;;;;;4978587;28;20019;-85
2021/04/16 01:52:30;;;;;;;5.47;1.97;;;2.20;99.90;;;;;;4976882;28;20031;-85
2021/04/16 01:54:57;;;;;;;4.83;2.07;;;2.20;99.90;;;;;;4978583;28;20516;-85
2021/04/16 01:57:33;;;;;;;4.20;2.00;;;2.20;99.90;;;;;;4979435;28;20047;-85
2021/04/16 02:00:00;;;;;;;4.57;2.10;;;2.20;99.90;;;;;;4978218;28;20023;-85
2021/04/16 02:02:28;;;;;;;6.33;2.40;;;2.10;99.90;;;;;;4972323;28;20023;-85
2021/04/16 02:04:54;;;;;;;3.87;1.70;;;2.20;99.90;;;;;;4978970;28;20034;-85
2021/04/16 02:07:20;;;;;;;3.73;1.80;;;2.10;99.90;;;;;;4980571;28;20027;-85
2021/04/16 02:09:46;;;;;;;4.53;1.90;;;2.10;99.90;;;;;;4978893;28;20029;-85
2021/04/16 02:12:14;;;;;;;4.77;2.17;;;2.10;99.90;;;;;;4978165;28;20392;-85
2021/04/16 02:14:40;;;;;;;6.97;2.30;;;2.10;99.90;;;;;;4978337;28;20042;-85
2021/04/16 02:17:13;;;;;;;5.57;1.80;;;2.10;99.90;;;;;;4986609;28;20134;-86
2021/04/16 02:19:39;;;;;;;4.17;2.00;;;2.10;99.90;;;;;;5003725;28;20035;-84
2021/04/16 02:22:12;;;;;;;6.20;2.23;;;2.10;99.90;;;;;;4990456;28;20015;-85
2021/04/16 02:24:38;;;;;;;4.60;1.77;;;2.00;99.90;;;;;;4977476;28;20051;-84
2021/04/16 02:27:04;;;;;;;4.30;2.07;;;2.00;99.90;;;;;;4977251;28;20022;-85
2021/04/16 02:29:30;;;;;;;4.73;1.90;;;2.00;99.90;;;;;;4977665;28;20019;-85
2021/04/16 02:31:55;;;;;;;4.13;1.73;;;2.00;99.90;;;;;;4971365;28;20117;-85
2021/04/16 02:34:24;;;;;;;5.40;1.97;;;2.00;99.90;;;;;;4977384;28;20030;-85
2021/04/16 02:36:52;;;;;;;5.67;2.27;;;2.00;99.90;;;;;;4970658;28;20026;-85
2021/04/16 02:39:19;;;;;;;3.47;1.90;;;2.00;99.90;;;;;;4977953;28;20106;-85
2021/04/16 02:41:44;;;;;;;4.73;2.00;;;2.10;99.90;;;;;;4975639;28;20041;-84
2021/04/16 02:44:11;;;;;;;5.63;2.63;;;2.00;99.90;;;;;;4977341;28;20090;-84
2021/04/16 02:46:37;;;;;;;4.97;2.10;;;2.00;99.90;;;;;;4975378;28;20499;-86
2021/04/16 02:49:03;;;;;;;6.13;2.60;;;2.00;99.90;;;;;;4977713;28;20403;-85
2021/04/16 02:51:29;;;;;;;7.83;2.63;;;2.10;99.90;;;;;;4976211;28;20035;-85
2021/04/16 02:53:55;;;;;;;6.13;2.00;;;2.00;99.90;;;;;;4979028;28;20113;-84
2021/04/16 02:56:22;;;;;;;5.40;2.27;;;2.00;99.90;;;;;;4978509;28;20026;-85
2021/04/16 02:58:47;;;;;;;5.23;2.53;;;1.90;99.90;;;;;;4977434;28;20034;-84
2021/04/16 03:01:13;;;;;;;4.90;2.47;;;1.90;99.90;;;;;;4976804;28;20023;-85
2021/04/16 03:03:38;;;;;;;4.73;2.27;;;1.90;99.90;;;;;;4977086;28;20027;-84
2021/04/16 03:06:05;;;;;;;5.03;2.33;;;1.80;99.90;;;;;;4978133;28;20030;-85
2021/04/16 03:08:30;;;;;;;7.70;2.33;;;1.80;99.90;;;;;;4976952;28;20031;-86
2021/04/16 03:10:57;;;;;;;7.03;2.70;;;1.70;99.90;;;;;;4978173;28;20042;-85
2021/04/16 03:13:23;;;;;;;6.90;2.27;;;1.70;99.90;;;;;;4976903;28;20026;-85
2021/04/16 03:15:49;;;;;;;5.47;1.93;;;1.60;99.90;;;;;;4977847;28;20031;-85
2021/04/16 03:18:15;;;;;;;5.97;2.23;;;1.60;99.90;;;;;;4973749;28;20033;-85
2021/04/16 03:20:42;;;;;;;4.87;2.07;;;1.60;99.90;;;;;;4978797;28;20113;-85
2021/04/16 03:23:07;;;;;;;8.27;2.37;;;1.50;99.90;;;;;;4975276;28;20030;-85
2021/04/16 03:25:33;;;;;;;5.47;2.50;;;1.40;99.90;;;;;;4977221;28;20034;-85
2021/04/16 03:27:59;;;;;;;5.00;2.43;;;1.40;99.90;;;;;;4977057;28;20034;-85
2021/04/16 03:30:27;;;;;;;5.83;2.67;;;1.50;99.90;;;;;;4976981;28;20054;-85
2021/04/16 03:32:52;;;;;;;7.13;2.53;;;1.50;99.90;;;;;;4976860;28;20031;-85
2021/04/16 03:35:19;;;;;;;5.30;2.50;;;1.50;99.90;;;;;;4977475;28;20115;-85
2021/04/16 03:37:45;;;;;;;5.90;2.37;;;1.40;99.90;;;;;;4975099;28;20058;-85
2021/04/16 03:40:14;;;;;;;9.40;2.30;;;1.30;99.90;;;;;;4978754;28;20077;-85
2021/04/16 03:42:40;;;;;;;5.33;2.30;;;1.30;99.90;;;;;;4977231;28;20046;-85
2021/04/16 03:45:07;;;;;;;6.60;2.73;;;1.30;99.90;;;;;;4977782;28;20136;-85
2021/04/16 03:47:33;;;;;;;5.80;2.57;;;1.30;99.90;;;;;;4969829;28;20031;-85
2021/04/16 03:49:58;;;;;;;5.67;2.43;;;1.30;99.90;;;;;;4978936;28;20110;-85
2021/04/16 03:52:26;;;;;;;5.23;2.60;;;1.30;99.90;;;;;;4987635;28;20642;-85
2021/04/16 03:54:52;;;;;;;4.87;2.30;;;1.20;99.90;;;;;;4991503;28;20026;-85
2021/04/16 03:57:19;;;;;;;4.50;2.20;;;1.10;99.90;;;;;;4978345;28;20050;-85
2021/04/16 03:59:45;;;;;;;4.67;2.10;;;1.10;99.90;;;;;;4978248;28;20027;-85
2021/04/16 04:02:11;;;;;;;5.40;2.37;;;1.10;99.90;;;;;;4977828;28;20050;-85
2021/04/16 04:04:36;;;;;;;8.47;2.37;;;1.10;99.90;;;;;;4977858;28;20033;-84
2021/04/16 04:07:02;;;;;;;5.60;2.43;;;1.10;99.90;;;;;;4970791;28;20054;-85
2021/04/16 04:09:28;;;;;;;4.93;2.23;;;1.00;99.90;;;;;;4977435;28;20031;-85
2021/04/16 04:11:53;;;;;;;5.07;2.63;;;1.00;99.90;;;;;;4977207;28;20030;-85
2021/04/16 04:14:20;;;;;;;4.60;2.30;;;0.90;99.90;;;;;;4977579;28;20114;-85
2021/04/16 04:16:55;;;;;;;6.20;2.83;;;0.90;99.90;;;;;;4977580;28;20113;-85
2021/04/16 04:19:22;;;;;;;5.40;2.60;;;1.00;99.90;;;;;;4976308;28;20031;-85
2021/04/16 04:21:50;;;;;;;7.17;2.30;;;1.00;99.90;;;;;;4974809;28;20042;-85
2021/04/16 04:24:16;;;;;;;6.00;2.67;;;0.90;99.90;;;;;;4976049;28;20045;-85
2021/04/16 04:26:42;;;;;;;5.13;2.33;;;0.90;99.90;;;;;;4976792;28;20134;-85
2021/04/16 04:29:08;;;;;;;5.27;2.50;;;0.90;99.90;;;;;;4977052;28;20404;-85
2021/04/16 04:31:35;;;;;;;7.57;2.70;;;0.90;99.90;;;;;;4977136;28;20050;-85
2021/04/16 04:34:00;;;;;;;4.83;2.50;;;0.90;99.90;;;;;;4980447;28;20078;-85
2021/04/16 04:36:26;;;;;;;6.67;2.83;;;0.90;99.90;;;;;;4981630;28;20046;-85
2021/04/16 04:38:52;;;;;;;9.53;2.93;;;0.90;99.90;;;;;;4982158;28;20023;-85
2021/04/16 04:41:18;;;;;;;8.07;3.10;;;0.90;99.90;;;;;;4979434;28;20137;-85
2021/04/16 04:43:44;;;;;;;5.13;2.63;;;0.90;99.90;;;;;;4979981;28;20026;-85
2021/04/16 04:46:10;;;;;;;6.43;2.80;;;1.00;99.90;;;;;;4980543;28;20749;-84
2021/04/16 04:48:35;;;;;;;4.63;2.23;;;0.90;99.90;;;;;;4980844;28;20026;-85
2021/04/16 04:51:02;;;;;;;5.33;2.70;;;0.90;99.90;;;;;;4978129;28;20031;-86
2021/04/16 04:53:27;;;;;;;6.97;2.50;;;1.00;99.90;;;;;;4975418;28;20118;-85
2021/04/16 04:55:53;;;;;;;5.97;2.67;;;1.00;99.90;;;;;;4980313;28;20062;-85
2021/04/16 04:58:19;;;;;;;7.27;2.87;;;1.20;99.90;;;;;;4979660;28;20154;-85
2021/04/16 05:00:44;;;;;;;5.83;2.53;;;1.10;99.90;;;;;;4979057;28;20022;-85
2021/04/16 05:03:10;;;;;;;5.13;2.80;;;1.00;99.90;;;;;;4980225;28;20023;-85
2021/04/16 05:05:35;;;;;;;6.67;2.70;;;1.10;99.90;;;;;;4986098;28;20093;-85
2021/04/16 05:08:01;;;;;;;5.50;2.77;;;1.10;99.90;;;;;;4979282;28;20048;-85
2021/04/16 05:10:27;;;;;;;6.37;2.80;;;1.10;99.90;;;;;;4981037;28;20050;-85
2021/04/16 05:12:53;;;;;;;6.53;2.53;;;1.20;99.90;;;;;;4979801;28;20026;-85
2021/04/16 05:15:19;;;;;;;5.87;3.03;;;1.30;99.90;;;;;;4979417;28;20400;-85
2021/04/16 05:17:45;;;;;;;5.60;2.87;;;1.30;99.90;;;;;;4980879;28;20019;-86
2021/04/16 05:20:11;;;;;;;6.73;3.33;;;1.40;99.90;;;;;;4979492;28;20026;-85
2021/04/16 05:22:37;;;;;;;6.53;3.27;;;1.40;99.90;;;;;;4979402;28;20023;-85
2021/04/16 05:25:04;;;;;;;6.77;3.20;;;1.50;99.90;;;;;;4978254;28;20078;-84
2021/04/16 05:27:30;;;;;;;5.97;2.97;;;1.60;99.90;;;;;;4975714;28;20499;-85
2021/04/16 05:29:56;;;;;;;6.80;2.70;;;1.70;99.90;;;;;;4976701;28;20026;-85
2021/04/16 05:32:21;;;;;;;6.57;3.37;;;1.70;99.90;;;;;;4975685;28;20460;-85
2021/04/16 05:34:47;;;;;;;5.97;2.33;;;1.80;99.90;;;;;;4976852;28;20503;-85
2021/04/16 05:37:14;;;;;;;8.43;3.07;;;1.90;99.90;;;;;;4980116;28;20026;-85
2021/04/16 05:39:40;;;;;;;7.27;3.37;;;2.00;99.90;;;;;;4976058;28;20014;-85
2021/04/16 05:42:06;;;;;;;5.27;2.73;;;2.00;99.90;;;;;;4980261;28;20019;-86
2021/04/16 05:44:32;;;;;;;10.87;3.03;;;2.10;99.90;;;;;;4982780;28;20364;-86
2021/04/16 05:46:58;;;;;;;5.87;3.03;;;2.10;99.90;;;;;;4968935;28;20027;-86
2021/04/16 05:49:25;;;;;;;8.30;3.13;;;2.00;99.90;;;;;;4976717;28;20144;-85
2021/04/16 05:51:54;;;;;;;6.73;3.40;;;2.00;99.90;;;;;;4974446;28;20117;-86
2021/04/16 05:54:20;;;;;;;8.90;3.33;;;1.90;99.90;;;;;;4983482;28;20039;-86
2021/04/16 05:56:46;;;;;;;7.27;2.87;;;1.90;99.90;;;;;;4977050;28;20026;-86
2021/04/16 05:59:11;;;;;;;6.77;2.90;;;1.90;99.90;;;;;;4972062;28;20055;-85
2021/04/16 06:01:37;;;;;;;7.70;3.50;;;1.90;99.90;;;;;;4976280;28;20033;-85
2021/04/16 06:04:04;;;;;;;7.20;2.97;;;1.80;99.90;;;;;;4975910;28;20110;-86
2021/04/16 06:06:29;;;;;;;9.17;3.90;;;1.90;99.90;;;;;;4975808;28;20035;-85
2021/04/16 06:08:55;;;;;;;7.87;3.40;;;1.90;99.90;;;;;;4974576;28;20031;-86
2021/04/16 06:11:22;;;;;;;5.93;3.40;;;2.00;99.90;;;;;;4972312;28;20035;-86
2021/04/16 06:13:48;;;;;;;9.30;3.87;;;1.90;99.90;;;;;;4973344;28;20027;-85
2021/04/16 06:16:14;;;;;;;7.20;3.63;;;2.00;99.90;;;;;;4974321;28;20019;-85
2021/04/16 06:18:40;;;;;;;8.73;3.63;;;1.90;99.90;;;;;;4974288;28;20027;-86
2021/04/16 06:21:07;;;;;;;7.47;3.43;;;1.90;99.90;;;;;;4973780;28;20107;-85
2021/04/16 06:23:33;;;;;;;6.33;3.43;;;1.90;99.90;;;;;;4974678;28;20034;-86
2021/04/16 06:26:00;;;;;;;9.53;3.90;;;2.00;99.90;;;;;;4974548;28;20119;-85
2021/04/16 06:28:26;;;;;;;6.10;3.27;;;2.00;99.90;;;;;;4971349;28;20047;-84
2021/04/16 06:30:54;;;;;;;8.87;3.53;;;2.10;99.90;;;;;;4978026;28;20035;-85
2021/04/16 06:33:26;;;;;;;7.73;3.90;;;2.20;99.90;;;;;;4976006;28;20105;-85
2021/04/16 06:35:59;;;;;;;5.25;2.90;;;2.30;99.90;;;;;;4974348;28;20025;-85
2021/04/16 06:38:30;;;;;;;7.90;3.67;;;2.30;99.90;;;;;;4982084;28;20492;-85
2021/04/16 06:40:57;;;;;;;6.57;3.57;;;2.40;99.90;;;;;;4986106;28;20049;-84
2021/04/16 06:43:26;;;;;;;8.17;4.00;;;2.70;99.90;;;;;;4963070;28;20045;-85
2021/04/16 06:45:57;;;;;;;6.60;3.20;;;2.90;99.90;;;;;;4975044;28;20106;-85
2021/04/16 06:48:23;;;;;;;5.83;3.53;;;2.90;99.90;;;;;;4972074;28;20041;-84
2021/04/16 06:50:50;;;;;;;7.60;3.67;;;3.00;99.90;;;;;;4973223;28;20085;-85
2021/04/16 06:53:36;;;;;;;5.90;3.67;;;3.00;99.90;;;;;;4993638;23;20081;-83
2021/04/16 06:56:32;;;;;;;7.77;3.70;;;3.40;99.90;;;;;;5015693;28;20033;-83
2021/04/16 06:59:20;;;;;;;6.53;3.20;;;3.60;99.90;;;;;;5018011;28;21288;-84
2021/04/16 07:02:09;;;;;;;6.20;3.43;;;3.90;99.90;;;;;;5018907;28;20026;-84
2021/04/16 07:05:05;;;;;;;8.90;4.30;;;4.20;99.90;;;;;;4991651;28;20054;-90
2021/04/16 07:08:01;;;;;;;13.10;5.67;;;4.50;99.90;;;;;;5012351;28;20022;-88
2021/04/16 07:10:48;;;;;;;7.53;3.70;;;4.50;99.90;;;;;;4991508;28;20030;-88
2021/04/16 07:13:54;;;;;;;6.07;3.37;;;4.60;99.90;;;;;;4994516;28;20479;-88
2021/04/16 07:16:32;;;;;;;6.83;3.40;;;4.40;99.90;;;;;;5003533;28;20057;-89
2021/04/16 07:19:04;;;;;;;6.10;3.10;;;4.90;99.90;;;;;;4994120;28;20040;-88
2021/04/16 07:22:06;;;;;;;;;;;;;;;;;;;;;
2021/04/16 07:24:50;;;;;;;;;;;;;;;;;;;;;
2021/04/16 07:28:03;;;;;;;6.20;3.20;;;4.50;99.90;;;;;;5011182;28;20113;-88
2021/04/16 07:30:46;;;;;;;5.78;3.17;;;4.50;99.90;;;;;;4982678;28;20031;-88
2021/04/16 07:33:39;;;;;;;7.07;3.38;;;4.70;99.90;;;;;;5006962;28;20031;-85
2021/04/16 07:36:30;;;;;;;;;;;4.50;99.90;;;;;;5014997;28;20021;-88
2021/04/16 07:39:10;;;;;;;8.10;3.57;;;4.60;99.90;;;;;;4993372;28;19932;-88
2021/04/16 07:41:47;;;;;;;6.07;3.37;;;5.10;99.90;;;;;;5004705;28;20034;-88
2021/04/16 07:44:35;;;;;;;6.40;3.67;;;5.20;99.90;;;;;;4997204;28;20018;-88
2021/04/16 07:47:11;;;;;;;6.47;3.03;;;5.40;99.90;;;;;;4988230;28;20112;-87
2021/04/16 07:49:38;;;;;;;7.63;3.27;;;5.50;99.90;;;;;;5011626;28;20026;-88
2021/04/16 07:52:32;;;;;;;6.50;3.27;;;5.30;99.90;;;;;;4997149;28;20848;-88
2021/04/16 07:55:22;;;;;;;6.37;3.40;;;5.20;99.90;;;;;;4998501;28;20029;-89
2021/04/16 07:58:24;;;;;;;7.23;3.60;;;5.00;99.90;;;;;;4990462;28;20030;-89
2021/04/16 08:00:55;;;;;;;6.27;3.53;;;5.30;99.90;;;;;;4971312;28;20037;-89
2021/04/16 08:03:26;;;;;;;6.80;3.23;;;4.80;99.90;;;;;;5008089;28;20026;-89
2021/04/16 08:05:55;;;;;;;5.75;3.28;;;5.00;99.90;;;;;;5005665;28;20030;-87
2021/04/16 08:09:13;;;;;;;5.80;3.23;;;4.70;99.90;;;;;;5013050;28;20018;-89
2021/04/16 08:12:41;;;;;;;6.80;3.43;;;4.50;99.90;;;;;;5001180;28;20034;-89
2021/04/16 08:15:42;;;;;;;6.07;3.63;;;4.40;99.90;;;;;;4962617;28;20050;-88
2021/04/16 08:22:09;;;;;;;6.07;3.40;;;4.70;99.90;;;;;;4972490;28;20059;-88
2021/04/16 08:24:54;;;;;;;5.68;3.15;;;4.70;99.90;;;;;;4996645;28;20033;-88
2021/04/16 08:27:45;;;;;;;6.30;3.00;;;4.60;99.90;;;;;;4996029;28;20058;-89
2021/04/16 08:30:22;;;;;;;5.73;3.73;;;4.70;99.90;;;;;;4992478;28;20030;-89
2021/04/16 08:33:27;;;;;;;5.30;3.10;;;4.70;99.90;;;;;;4995068;28;20045;-89
2021/04/16 08:36:24;;;;;;;5.00;2.87;;;4.80;99.90;;;;;;4997934;28;20038;-89
2021/04/16 08:39:20;;;;;;;6.13;3.50;;;4.80;99.90;;;;;;4993505;28;20030;-89
2021/04/16 08:42:40;;;;;;;7.70;3.37;;;4.90;99.90;;;;;;5010074;28;20486;-89
2021/04/16 08:45:36;;;;;;;5.47;2.90;;;4.80;99.90;;;;;;4985782;28;20027;-90
2021/04/16 08:48:20;;;;;;;6.30;3.33;;;4.80;99.90;;;;;;4989018;28;20022;-90
2021/04/16 08:50:56;;;;;;;5.37;3.10;;;4.80;99.90;;;;;;4980260;28;20030;-88
2021/04/16 08:53:24;;;;;;;5.53;3.27;;;4.90;99.90;;;;;;4999150;28;20037;-90
2021/04/16 08:55:52;;;;;;;5.43;3.20;;;4.90;99.90;;;;;;5001233;28;20018;-90
2021/04/16 08:58:34;;;;;;;5.70;2.90;;;5.00;99.90;;;;;;5003003;28;20089;-89
2021/04/16 09:01:31;;;;;;;6.70;3.42;;;4.90;99.90;;;;;;4988643;28;20038;-92
2021/04/16 09:04:14;;;;;;;5.70;3.30;;;5.00;99.90;;;;;;4994103;28;20026;-91
2021/04/16 09:06:49;;;;;;;7.10;2.83;;;5.00;99.90;;;;;;4995705;28;20026;-90
2021/04/16 09:09:41;;;;;;;6.13;3.13;;;5.00;99.90;;;;;;4994776;28;20471;-89
2021/04/16 09:12:07;;;;;;;5.70;3.30;;;5.10;99.90;;;;;;4985124;28;20030;-90
2021/04/16 09:14:36;;;;;;;6.20;3.87;;;5.10;99.90;;;;;;4996432;28;20022;-91
2021/04/16 09:17:19;;;;;;;7.10;3.43;;;5.20;99.90;;;;;;5018569;28;20030;-92
2021/04/16 09:20:44;;;;;;;5.70;3.50;;;5.40;99.90;;;;;;5032879;28;20028;-91
2021/04/16 09:23:35;;;;;;;5.50;3.30;;;5.70;99.90;;;;;;5025805;28;20546;-89
2021/04/16 09:26:16;;;;;;;6.30;3.30;;;5.80;99.90;;;;;;5002779;28;20065;-90
2021/04/16 09:28:56;;;;;;;5.40;3.20;;;5.90;99.90;;;;;;5007463;28;20034;-90
2021/04/16 09:31:22;;;;;;;7.40;3.57;;;5.70;99.90;;;;;;5009178;28;20030;-90
2021/04/16 09:34:04;;;;;;;5.70;3.23;;;6.20;99.90;;;;;;5015171;28;20029;-90
2021/04/16 09:36:29;;;;;;;5.82;3.33;;;5.50;99.90;;;;;;4994142;28;20050;-88
2021/04/16 09:39:15;;;;;;;6.50;3.47;;;5.10;99.90;;;;;;5011620;28;20030;-89
2021/04/16 09:42:35;;;;;;;5.43;3.00;;;5.50;99.90;;;;;;4998180;28;20026;-89
2021/04/16 09:45:12;;;;;;;5.90;3.80;;;5.60;99.90;;;;;;5000368;28;20079;-90
2021/04/16 09:48:09;;;;;;;7.30;3.50;;;5.60;99.90;;;;;;5013078;28;20022;-90
2021/04/16 09:51:09;;;;;;;5.03;3.30;;;5.60;99.90;;;;;;4998463;28;20018;-90
2021/04/16 09:53:37;;;;;;;6.20;3.27;;;5.50;99.90;;;;;;5009192;28;20048;-88
2021/04/16 09:56:02;;;;;;;6.17;3.40;;;5.60;99.90;;;;;;4994759;28;20035;-88
2021/04/16 09:58:35;;;;;;;5.17;2.73;;;5.70;99.90;;;;;;4996171;28;20029;-89
2021/04/16 10:01:08;;;;;;;6.10;3.53;;;5.80;99.90;;;;;;4997042;28;20026;-90
2021/04/16 10:03:41;;;;;;;6.63;3.07;;;5.80;99.90;;;;;;5002593;28;20037;-89
2021/04/16 10:09:26;;;;;;;4.47;2.70;;;5.80;99.90;;;;;;5004577;28;20021;-89
2021/04/16 10:12:01;;;;;;;5.37;3.23;;;6.10;99.90;;;;;;4998420;28;20018;-89
2021/04/16 10:14:32;;;;;;;4.80;2.87;;;6.50;99.90;;;;;;4994416;28;20018;-90
2021/04/16 10:17:03;;;;;;;6.97;3.57;;;7.10;99.90;;;;;;5005595;28;20021;-89
2021/04/16 10:19:43;;;;;;;5.63;2.87;;;7.50;99.90;;;;;;5008204;28;20116;-89
2021/04/16 10:22:22;;;;;;;5.33;3.03;;;8.00;96.80;;;;;;5003174;28;20033;-89
2021/04/16 11:45:17;;;;;;;7.90;3.93;;;6.50;99.90;;;;;;5017834;28;20041;-88
2021/04/16 12:38:33;;;;;;;6.63;3.23;;;6.00;98.70;;;;;;4994621;28;20041;-92
2021/04/16 12:41:03;;;;;;;7.00;3.23;;;6.20;99.10;;;;;;4978804;28;20010;-92
2021/04/16 12:43:29;;;;;;;6.20;3.67;;;6.10;99.90;;;;;;4990840;28;20093;-92
2021/04/16 12:45:57;;;;;;;5.27;2.70;;;6.00;99.30;;;;;;4972924;28;20026;-92
2021/04/16 12:48:26;;;;;;;5.20;3.33;;;6.00;99.80;;;;;;4978809;28;20387;-90
2021/04/16 12:50:52;;;;;;;6.80;3.80;;;6.10;99.50;;;;;;4980511;28;20019;-91
2021/04/16 12:53:20;;;;;;;7.23;3.50;;;6.10;99.40;;;;;;4999456;28;20092;-91
2021/04/16 12:55:46;;;;;;;5.53;3.20;;;6.20;99.20;;;;;;4996054;28;20042;-92
2021/04/16 12:58:22;;;;;;;7.17;3.40;;;6.30;98.80;;;;;;4997174;28;20487;-93
2021/04/16 13:00:49;;;;;;;6.33;3.67;;;6.40;98.40;;;;;;4995266;28;20481;-96
2021/04/16 13:03:36;;;;;;;6.13;3.13;;;6.40;98.50;;;;;;4994295;28;20050;-96
2021/04/16 13:06:43;;;;;;;7.10;3.27;;;6.40;98.40;;;;;;5036382;23;20460;-87
2021/04/16 13:09:53;;;;;;;5.70;3.27;;;6.30;98.80;;;;;;4985738;28;20030;-87
2021/04/16 13:12:26;;;;;;;4.87;3.30;;;6.40;98.70;;;;;;5061180;23;20059;-88
2021/04/16 13:15:00;;;;;;;5.30;3.10;;;6.40;98.40;;;;;;5033443;28;20104;-89
2021/04/16 13:17:27;;;;;;;5.43;2.93;;;6.60;98.70;;;;;;5037611;28;20054;-88
2021/04/16 13:20:04;;;;;;;6.87;2.93;;;6.50;98.10;;;;;;5035049;28;20028;-90
2021/04/16 13:22:29;;;;;;;7.93;2.97;;;6.50;98.10;;;;;;5010591;28;20025;-91
2021/04/16 13:24:56;;;;;;;6.50;2.63;;;6.60;98.20;;;;;;5014047;28;20026;-90
2021/04/16 13:27:26;;;;;;;4.67;3.00;;;7.60;98.20;;;;;;5019907;28;20101;-90
2021/04/16 13:29:52;;;;;;;4.70;2.80;;;6.90;98.00;;;;;;5032444;28;20074;-90
2021/04/16 13:32:22;;;;;;;4.68;2.60;;;6.80;97.40;;;;;;5003793;28;20026;-91
2021/04/16 13:34:48;;;;;;;4.60;2.40;;;7.10;97.70;;;;;;5022554;28;20018;-91
2021/04/16 13:37:20;;;;;;;4.07;2.10;;;7.10;96.40;;;;;;5018215;28;20029;-90
2021/04/16 13:39:47;;;;;;;5.43;2.10;;;7.20;95.70;;;;;;5014752;28;20017;-90
2021/04/16 13:42:17;;;;;;;5.17;2.90;;;7.20;95.80;;;;;;5016451;28;20026;-91
2021/04/16 13:44:42;;;;;;;3.93;2.30;;;7.30;96.10;;;;;;5013652;28;20034;-91
2021/04/16 13:47:17;;;;;;;4.43;2.50;;;7.40;94.70;;;;;;5014222;28;20104;-91
2021/04/16 13:49:43;;;;;;;5.90;2.50;;;7.40;94.80;;;;;;5009193;28;20048;-90
2021/04/16 13:52:09;;;;;;;5.30;2.73;;;7.50;95.20;;;;;;5010546;28;20085;-90
2021/04/16 13:54:36;;;;;;;4.97;2.50;;;7.70;94.50;;;;;;5021257;28;20022;-91
2021/04/16 13:57:05;;;;;;;5.87;2.60;;;7.70;93.70;;;;;;5012696;28;20044;-90
2021/04/16 13:59:32;;;;;;;6.22;2.50;;;7.80;93.10;;;;;;5022142;28;20418;-91
2021/04/16 14:01:58;;;;;;;9.53;2.50;;;7.80;93.90;;;;;;5037697;23;20472;-90
2021/04/16 14:04:28;;;;;;;4.18;2.53;;;7.80;92.90;;;;;;5026150;28;20025;-88
2021/04/16 14:06:57;;;;;;;4.53;2.50;;;7.80;92.60;;;;;;5034863;28;20413;-88
2021/04/16 14:09:25;;;;;;;4.40;2.37;;;7.80;92.40;;;;;;5031341;28;20048;-86
2021/04/16 14:11:52;;;;;;;3.67;2.08;;;8.10;92.50;;;;;;5025463;28;20056;-87
2021/04/16 14:14:25;;;;;;;5.07;2.45;;;7.80;93.00;;;;;;5022424;28;20394;-87
2021/04/16 14:16:59;;;;;;;4.78;2.00;;;7.80;92.50;;;;;;5035854;28;20104;-87
2021/04/16 14:19:47;;;;;;;4.28;2.03;;;7.80;92.60;;;;;;5035997;28;20394;-87
2021/04/16 14:22:17;;;;;;;4.47;2.10;;;7.90;92.00;;;;;;5019922;28;20030;-87
2021/04/16 14:24:42;;;;;;;7.53;3.08;;;7.60;91.50;;;;;;5016364;28;20069;-88
2021/04/16 14:27:09;;;;;;;3.58;1.85;;;7.50;92.30;;;;;;5014750;28;20022;-88
2021/04/16 14:29:35;;;;;;;5.88;1.90;;;7.50;91.70;;;;;;5012753;28;20030;-87
2021/04/16 14:32:01;;;;;;;4.17;1.70;;;7.60;91.30;;;;;;5022028;28;20055;-87
2021/04/16 14:34:31;;;;;;;3.92;1.73;;;7.60;90.70;;;;;;5390138;23;20041;-88
2021/04/16 14:36:56;;;;;;;4.05;1.90;;;7.60;91.00;;;;;;4993150;28;20279;-93
2021/04/16 14:39:22;;;;;;;4.45;1.80;;;7.80;90.60;;;;;;5004788;28;20024;-93
2021/04/16 14:41:57;;;;;;;4.27;1.90;;;7.60;90.80;;;;;;5025773;28;20021;-92
2021/04/16 14:44:24;;;;;;;2.75;1.48;;;7.80;90.50;;;;;;5006248;28;20306;-91
2021/04/16 14:46:51;;;;;;;3.65;1.65;;;7.80;90.10;;;;;;4984180;28;20045;-89
2021/04/16 14:49:21;;;;;;;3.35;1.25;;;7.60;88.00;;;;;;4982831;28;20046;-91
2021/04/16 14:51:48;;;;;;;2.93;1.50;;;7.70;88.00;;;;;;4967058;28;20169;-91
2021/04/16 14:54:33;;;;;;;3.87;1.60;;;7.90;88.10;;;;;;4999364;23;20193;-91
2021/04/16 14:57:04;;;;;;;3.10;1.60;;;7.60;87.70;;;;;;5014301;28;20032;-91
2021/04/16 14:59:43;;;;;;;3.42;1.50;;;7.60;88.50;;;;;;5018221;28;20486;-91
2021/04/16 15:02:09;;;;;;;3.67;1.30;;;7.50;88.00;;;;;;5016015;28;20037;-92
2021/04/16 15:04:35;;;;;;;2.97;1.50;;;7.80;87.80;;;;;;5016926;28;20022;-92
2021/04/16 15:07:03;;;;;;;2.77;1.53;;;7.60;88.00;;;;;;5020658;28;20439;-91
2021/04/16 15:10:02;;;;;;;;;;;;;;;;;;;;;
2021/04/16 15:12:55;;;;;;;4.70;1.65;;;7.50;88.40;;;;;;5031889;28;20388;-92
2021/04/16 15:16:04;;;;;;;;;;;;;;;;;;;;;
2021/04/16 15:22:55;;;;;;;4.87;2.03;;;7.40;90.00;;;;;;4979774;28;20025;-93
2021/04/16 15:26:16;;;;;;;6.83;3.33;;;7.20;89.60;;;;;;5030672;28;20033;-95
2021/04/16 15:29:06;;;;;;;6.37;3.30;;;7.20;90.00;;;;;;4881628;29;20084;-94
2021/04/16 15:31:41;;;;;;;5.83;3.37;;;7.40;90.10;;;;;;4991743;28;20049;-93
2021/04/16 15:46:10;;;;;;;;;;;6.60;91.60;;;;;;5043709;28;20377;-94
2021/04/16 15:48:50;;;;;;;8.27;4.20;;;6.40;91.80;;;;;;5017227;28;19905;-94
2021/04/16 15:51:21;;;;;;;3.60;2.07;;;6.60;92.10;;;;;;5021935;28;20392;-94
2021/04/16 15:53:54;;;;;;;5.53;3.10;;;6.40;92.10;;;;;;5022961;28;20093;-93
2021/04/16 15:56:33;;;;;;;5.75;3.65;;;6.10;92.70;;;;;;5024213;28;20017;-94
2021/04/16 15:59:20;;;;;;;5.73;3.20;;;6.20;93.10;;;;;;5021392;28;20029;-93
2021/04/16 16:01:52;;;;;;;6.33;2.87;;;6.30;93.20;;;;;;5015369;28;20025;-93
2021/04/16 16:04:18;;;;;;;7.65;2.78;;;6.40;93.40;;;;;;5011775;28;20029;-94
2021/04/16 16:07:04;;;;;;;5.70;3.03;;;6.10;94.00;;;;;;5027809;28;20034;-94